Woodland Park, Colorado
Current Conditions -  °F | °C
As of 2:58 AM on Friday 24 Oct 2014 (Local Time) from KAFF Reporting Station
Clear Clear  
Wind Chill: 47°   Ceiling: Unl
Heat Index: 47°   Visibility: 10mi
Dew Point: 30°   Wind: 2mph
Humidity: 51%   Direction: NA
Pressure: 30.22"   Gusts: NA
Location:  38.99°N, 105.05°W
Report Text: KAFF 240858Z AUTO VRB02KT 10SM CLR 09/M01 A3022 RMK AO2 SLP169 T00861011 55004
Loading
Personal Weather Stations






























Interactive Weather Map New forecast layout! Learn more

10-Day Weather Forecast

Advertisements
Track Severe Weather on mobile